createdAt,value
2022-08-31T00:00:12.075Z,13.60
2022-08-31T00:02:57.746Z,13.60
2022-08-31T00:05:25.134Z,13.60
2022-08-31T00:07:52.876Z,13.60
2022-08-31T00:10:32.011Z,13.60
2022-08-31T00:13:01.490Z,13.60
2022-08-31T00:15:30.600Z,13.50
2022-08-31T00:17:58.388Z,13.60
2022-08-31T00:20:33.493Z,13.60
2022-08-31T00:23:07.517Z,13.60
2022-08-31T00:25:36.486Z,13.60
2022-08-31T00:28:05.154Z,13.60
2022-08-31T00:30:32.960Z,13.70
2022-08-31T00:33:01.292Z,13.70
2022-08-31T00:35:30.275Z,13.70
2022-08-31T00:37:57.908Z,13.70
2022-08-31T00:40:26.875Z,13.70
2022-08-31T00:42:54.458Z,13.70
2022-08-31T00:45:22.489Z,13.70
2022-08-31T00:47:51.458Z,13.70
2022-08-31T00:50:19.618Z,13.70
2022-08-31T00:52:51.294Z,13.70
2022-08-31T00:55:45.303Z,13.70
2022-08-31T00:58:13.444Z,13.70
2022-08-31T01:00:43.508Z,13.70
2022-08-31T01:03:11.076Z,13.70
2022-08-31T01:05:40.698Z,13.70
2022-08-31T01:08:08.806Z,13.70
2022-08-31T01:10:40.220Z,13.70
2022-08-31T01:13:09.171Z,13.70
2022-08-31T01:15:38.164Z,13.70
2022-08-31T01:18:06.548Z,13.70
2022-08-31T01:21:00.078Z,13.70
2022-08-31T01:23:40.361Z,13.60
2022-08-31T01:26:08.915Z,13.60
2022-08-31T01:28:36.696Z,13.50
2022-08-31T01:31:09.114Z,13.50
2022-08-31T01:33:38.589Z,13.40
2022-08-31T01:36:07.666Z,13.40
2022-08-31T01:38:36.064Z,13.40
2022-08-31T01:41:04.391Z,13.30
2022-08-31T01:43:35.077Z,13.30
2022-08-31T01:46:09.418Z,13.30
2022-08-31T01:48:41.072Z,13.30
2022-08-31T01:51:12.580Z,13.20
2022-08-31T01:53:40.339Z,13.20
2022-08-31T01:56:14.978Z,13.20
2022-08-31T01:58:42.425Z,13.20
2022-08-31T02:01:31.298Z,13.20
2022-08-31T02:04:00.637Z,13.10
2022-08-31T02:06:27.865Z,13.10
2022-08-31T02:08:55.215Z,13.00
2022-08-31T02:11:22.447Z,13.00
2022-08-31T02:13:49.747Z,13.00
2022-08-31T02:16:17.590Z,13.00
2022-08-31T02:18:44.947Z,13.00
2022-08-31T02:21:13.821Z,13.00
2022-08-31T02:23:42.276Z,13.00
2022-08-31T02:26:10.113Z,12.90
2022-08-31T02:28:38.649Z,12.90
2022-08-31T02:31:05.955Z,12.90
2022-08-31T02:33:33.328Z,12.90
2022-08-31T02:36:00.739Z,12.90
2022-08-31T02:38:28.093Z,12.90
2022-08-31T02:40:55.736Z,12.90
2022-08-31T02:43:24.879Z,12.80
2022-08-31T02:45:53.835Z,12.80
2022-08-31T02:48:22.283Z,12.70
2022-08-31T02:50:51.794Z,12.70
2022-08-31T02:53:21.561Z,12.70
2022-08-31T02:55:49.589Z,12.60
2022-08-31T02:58:21.981Z,12.60
2022-08-31T03:00:51.600Z,12.60
2022-08-31T03:03:19.697Z,12.50
2022-08-31T03:05:47.021Z,12.50
2022-08-31T03:08:14.693Z,12.50
2022-08-31T03:10:42.229Z,12.50
2022-08-31T03:13:09.419Z,12.50
2022-08-31T03:15:36.698Z,12.60
2022-08-31T03:18:06.768Z,12.60
2022-08-31T03:20:34.855Z,12.60
2022-08-31T03:23:03.045Z,12.60
2022-08-31T03:25:32.399Z,12.60
2022-08-31T03:27:59.679Z,12.60
2022-08-31T03:30:29.294Z,12.60
2022-08-31T03:33:02.281Z,12.60
2022-08-31T03:35:31.245Z,12.60
2022-08-31T03:37:58.983Z,12.60
2022-08-31T03:40:26.307Z,12.50
2022-08-31T03:42:53.806Z,12.50
2022-08-31T03:45:21.065Z,12.50
2022-08-31T03:47:48.571Z,12.50
2022-08-31T03:50:16.545Z,12.50
2022-08-31T03:52:43.866Z,12.50
2022-08-31T03:55:12.349Z,12.40
2022-08-31T03:57:40.366Z,12.40
2022-08-31T04:00:08.469Z,12.40
2022-08-31T04:02:39.716Z,12.30
2022-08-31T04:05:08.494Z,12.20
2022-08-31T04:07:42.157Z,12.20
2022-08-31T04:10:12.372Z,12.20
2022-08-31T04:12:42.850Z,12.10
2022-08-31T04:15:11.677Z,12.10
2022-08-31T04:17:39.043Z,12.10
2022-08-31T04:20:07.120Z,12.10
2022-08-31T04:22:34.836Z,12.00
2022-08-31T04:25:02.151Z,12.10
2022-08-31T04:27:29.620Z,12.00
2022-08-31T04:29:57.289Z,12.00
2022-08-31T04:32:26.116Z,12.10
2022-08-31T05:58:01.140Z,18.70
2022-08-31T06:03:42.662Z,20.10
2022-08-31T06:06:13.686Z,20.60
2022-08-31T06:08:56.007Z,20.60
2022-08-31T06:12:08.791Z,20.40
2022-08-31T06:14:47.886Z,20.20
2022-08-31T06:17:40.412Z,20.30
2022-08-31T06:20:12.071Z,20.20
2022-08-31T06:23:23.196Z,20.30
2022-08-31T06:25:54.958Z,20.20
2022-08-31T06:28:23.855Z,20.10
2022-08-31T06:30:55.956Z,20.10
2022-08-31T06:33:27.145Z,20.00
2022-08-31T06:36:16.096Z,19.90
2022-08-31T06:38:55.929Z,19.90
2022-08-31T06:41:37.680Z,19.70
2022-08-31T06:44:11.606Z,19.50
2022-08-31T06:46:47.236Z,19.30
2022-08-31T06:49:15.636Z,19.00
2022-08-31T06:51:49.806Z,18.80
2022-08-31T06:54:30.804Z,18.60
2022-08-31T06:56:59.430Z,18.40
2022-08-31T06:59:30.262Z,18.10
2022-08-31T07:02:03.705Z,18.00
2022-08-31T07:04:39.170Z,18.00
2022-08-31T07:07:07.946Z,17.90
2022-08-31T07:09:35.763Z,17.70
2022-08-31T07:12:24.813Z,17.70
2022-08-31T07:14:54.679Z,17.70
2022-08-31T07:17:22.892Z,17.60
2022-08-31T07:19:50.705Z,17.50
2022-08-31T07:22:18.209Z,17.50
2022-08-31T07:24:45.767Z,17.50
2022-08-31T07:27:18.909Z,17.50
2022-08-31T07:29:46.488Z,17.50
2022-08-31T07:32:15.720Z,17.50
2022-08-31T07:34:46.338Z,17.60
2022-08-31T07:37:32.089Z,17.70
2022-08-31T07:40:17.737Z,17.60
2022-08-31T07:42:47.231Z,17.70
2022-08-31T07:45:25.836Z,17.70
2022-08-31T07:48:02.461Z,17.70
2022-08-31T07:50:32.012Z,17.70
2022-08-31T07:53:09.108Z,17.70
2022-08-31T07:55:36.637Z,17.80
2022-08-31T07:58:18.020Z,17.80
2022-08-31T08:00:48.117Z,17.80
2022-08-31T08:03:16.125Z,17.90
2022-08-31T08:05:43.703Z,17.90
2022-08-31T08:08:14.009Z,17.90
2022-08-31T08:10:52.680Z,18.00
2022-08-31T08:13:23.476Z,18.00
2022-08-31T08:15:53.986Z,18.10
2022-08-31T08:18:27.829Z,18.10
2022-08-31T08:20:55.471Z,18.10
2022-08-31T08:23:26.830Z,18.20
2022-08-31T08:25:57.765Z,18.20
2022-08-31T08:28:40.821Z,18.30
2022-08-31T08:31:19.261Z,18.40
2022-08-31T08:33:46.984Z,18.40
2022-08-31T08:36:19.452Z,18.40
2022-08-31T08:38:50.977Z,18.40
2022-08-31T08:44:07.553Z,18.60
2022-08-31T08:46:48.635Z,18.70
2022-08-31T08:49:39.444Z,18.70
2022-08-31T08:52:25.887Z,18.70
2022-08-31T08:54:55.657Z,18.70
2022-08-31T08:57:25.130Z,18.70
2022-08-31T08:59:57.781Z,18.80
2022-08-31T09:03:02.843Z,18.80
2022-08-31T09:05:49.132Z,19.00
2022-08-31T09:08:55.135Z,18.90
2022-08-31T09:15:09.660Z,19.10
2022-08-31T09:17:57.915Z,19.10
2022-08-31T09:20:32.943Z,19.10
2022-08-31T09:23:10.020Z,19.20
2022-08-31T09:25:55.629Z,19.10
2022-08-31T09:28:39.490Z,19.20
2022-08-31T09:31:07.012Z,19.20
2022-08-31T09:33:51.387Z,19.20
2022-08-31T09:36:50.782Z,19.30
2022-08-31T09:39:29.053Z,19.40
2022-08-31T09:42:14.554Z,19.40
2022-08-31T09:51:28.874Z,19.60
2022-08-31T09:54:49.707Z,19.90
2022-08-31T09:57:18.126Z,20.10
2022-08-31T09:59:59.272Z,20.20
2022-08-31T10:02:41.284Z,20.40
2022-08-31T10:13:10.516Z,21.50
2022-08-31T10:16:02.735Z,21.70
2022-08-31T10:18:51.073Z,21.90
2022-08-31T10:21:44.025Z,21.90
2022-08-31T10:24:49.725Z,21.80
2022-08-31T10:28:38.849Z,21.80
2022-08-31T10:31:48.575Z,21.80
2022-08-31T10:34:38.413Z,22.00
2022-08-31T10:49:28.027Z,22.50
2022-08-31T10:52:22.437Z,22.80
2022-08-31T11:06:49.878Z,23.00
2022-08-31T11:09:57.887Z,23.10
2022-08-31T11:27:19.889Z,23.10
2022-08-31T11:30:27.570Z,23.30
2022-08-31T11:47:01.140Z,23.60
2022-08-31T12:16:17.254Z,22.60
2022-08-31T12:26:54.846Z,23.40
2022-08-31T12:38:17.965Z,23.80
2022-08-31T12:43:00.744Z,24.00
2022-08-31T12:45:32.130Z,24.20
2022-08-31T12:52:23.436Z,24.10
2022-08-31T12:55:58.037Z,24.00
2022-08-31T13:14:42.409Z,23.20
2022-08-31T13:21:51.044Z,23.30
2022-08-31T13:24:54.155Z,23.60
2022-08-31T13:27:31.553Z,23.60
2022-08-31T13:34:33.480Z,23.30
2022-08-31T13:37:25.739Z,23.10
2022-08-31T13:40:12.041Z,22.90
2022-08-31T13:46:30.063Z,22.50
2022-08-31T13:49:54.415Z,22.60
2022-08-31T13:57:04.594Z,22.60
2022-08-31T13:59:49.591Z,22.60
2022-08-31T14:02:47.511Z,22.70
2022-08-31T14:26:30.299Z,22.90
2022-08-31T14:31:15.916Z,22.90
2022-08-31T14:34:27.635Z,22.70
2022-08-31T14:37:39.338Z,22.80
2022-08-31T14:40:09.823Z,22.70
2022-08-31T14:48:50.830Z,22.30
2022-08-31T14:51:18.370Z,22.20
2022-08-31T14:53:47.443Z,22.20
2022-08-31T15:02:21.716Z,22.40
2022-08-31T15:05:01.486Z,22.50
2022-08-31T15:07:53.804Z,22.60
2022-08-31T15:10:22.525Z,22.80
2022-08-31T15:13:08.999Z,22.90
2022-08-31T15:16:12.329Z,23.00
2022-08-31T15:30:12.462Z,23.30
2022-08-31T15:32:47.124Z,23.30
2022-08-31T15:35:55.191Z,23.40
2022-08-31T15:38:36.214Z,23.30
2022-08-31T15:41:19.991Z,23.30
2022-08-31T15:44:10.496Z,23.40
2022-08-31T15:50:34.354Z,23.00
2022-08-31T15:53:12.286Z,23.00
2022-08-31T15:55:43.707Z,23.10
2022-08-31T15:58:42.661Z,23.10
2022-08-31T16:01:21.600Z,23.10
2022-08-31T16:04:02.724Z,23.10
2022-08-31T16:09:56.907Z,23.00
2022-08-31T16:16:07.887Z,23.00
2022-08-31T16:18:38.375Z,22.80
2022-08-31T16:31:15.340Z,22.50
2022-08-31T16:33:56.386Z,22.20
2022-08-31T16:36:37.759Z,22.20
2022-08-31T16:42:36.268Z,21.90
2022-08-31T16:45:14.140Z,21.80
2022-08-31T16:47:41.608Z,21.70
2022-08-31T16:50:24.519Z,21.60
2022-08-31T16:52:55.984Z,21.60
2022-08-31T16:55:23.394Z,21.50
2022-08-31T16:58:00.120Z,21.40
2022-08-31T17:00:32.157Z,21.40
2022-08-31T17:03:02.494Z,21.30
2022-08-31T17:05:29.770Z,21.30
2022-08-31T17:07:58.120Z,21.20
2022-08-31T17:10:25.475Z,21.20
2022-08-31T17:12:58.594Z,21.20
2022-08-31T17:15:26.985Z,21.10
2022-08-31T17:17:54.240Z,21.10
2022-08-31T17:20:21.677Z,21.10
2022-08-31T17:22:49.711Z,21.10
2022-08-31T17:25:17.117Z,21.10
2022-08-31T17:27:45.614Z,21.00
2022-08-31T17:30:18.611Z,21.00
2022-08-31T17:32:46.562Z,21.00
2022-08-31T17:35:19.132Z,20.90
2022-08-31T17:37:48.041Z,20.90
2022-08-31T17:40:17.051Z,20.80
2022-08-31T17:42:44.720Z,20.80
2022-08-31T17:45:12.189Z,20.70
2022-08-31T17:47:39.629Z,20.70
2022-08-31T17:50:07.443Z,20.60
2022-08-31T17:52:35.286Z,20.60
2022-08-31T17:55:02.465Z,20.60
2022-08-31T17:57:29.963Z,20.50
2022-08-31T17:59:57.211Z,20.50
2022-08-31T18:02:31.542Z,20.40
2022-08-31T18:04:59.456Z,20.40
2022-08-31T18:07:26.926Z,20.30
2022-08-31T18:09:54.267Z,20.30
2022-08-31T18:12:23.017Z,20.30
2022-08-31T18:14:50.909Z,20.20
2022-08-31T18:17:21.857Z,20.20
2022-08-31T18:19:49.728Z,20.10
2022-08-31T18:22:18.518Z,20.10
2022-08-31T18:24:45.999Z,20.00
2022-08-31T18:27:17.878Z,20.00
2022-08-31T18:29:45.891Z,19.90
2022-08-31T18:32:14.195Z,19.90
2022-08-31T18:34:47.711Z,19.80
2022-08-31T18:37:21.294Z,19.70
2022-08-31T18:40:08.546Z,19.70
2022-08-31T18:42:56.829Z,19.60
2022-08-31T18:45:25.706Z,19.50
2022-08-31T18:50:52.343Z,19.40
2022-08-31T18:53:29.575Z,19.40
2022-08-31T18:56:04.750Z,19.30
2022-08-31T18:58:32.003Z,19.30
2022-08-31T19:00:59.843Z,19.20
2022-08-31T19:03:28.838Z,19.10
2022-08-31T19:05:56.995Z,19.10
2022-08-31T19:08:26.107Z,19.10
2022-08-31T19:10:54.800Z,19.00
2022-08-31T19:13:22.174Z,19.00
2022-08-31T19:15:49.858Z,18.90
2022-08-31T19:18:17.553Z,18.90
2022-08-31T19:20:44.988Z,18.80
2022-08-31T19:23:15.508Z,18.80
2022-08-31T19:25:52.461Z,18.70
2022-08-31T19:28:19.791Z,18.70
2022-08-31T19:30:48.931Z,18.70
2022-08-31T19:33:16.547Z,18.60
2022-08-31T19:35:45.432Z,18.60
2022-08-31T19:38:14.374Z,18.50
2022-08-31T19:40:42.028Z,18.50
2022-08-31T19:46:09.611Z,18.40
2022-08-31T19:48:46.216Z,18.40
2022-08-31T19:51:15.808Z,18.40
2022-08-31T19:53:45.515Z,18.30
2022-08-31T19:56:18.264Z,18.30
2022-08-31T19:58:51.185Z,18.30
2022-08-31T20:01:25.582Z,18.30
2022-08-31T20:03:56.655Z,18.20
2022-08-31T20:06:25.737Z,18.20
2022-08-31T20:08:59.625Z,18.20
2022-08-31T20:11:30.235Z,18.10
2022-08-31T20:14:01.579Z,18.10
2022-08-31T20:16:36.996Z,18.10
2022-08-31T20:19:05.039Z,18.00
2022-08-31T20:21:35.269Z,18.00
2022-08-31T20:24:06.863Z,18.00
2022-08-31T20:26:46.137Z,17.90
2022-08-31T20:29:16.553Z,17.90
2022-08-31T20:31:47.155Z,17.80
2022-08-31T20:34:18.531Z,17.80
2022-08-31T20:36:48.588Z,17.80
2022-08-31T20:39:18.557Z,17.80
2022-08-31T20:41:48.520Z,17.70
2022-08-31T20:44:49.979Z,17.70
2022-08-31T20:47:36.133Z,17.70
2022-08-31T20:50:07.742Z,17.60
2022-08-31T20:52:35.998Z,17.60
2022-08-31T20:55:05.548Z,17.60
2022-08-31T20:57:37.848Z,17.50
2022-08-31T21:00:06.309Z,17.50
2022-08-31T21:02:34.958Z,17.40
2022-08-31T21:05:33.912Z,17.40
2022-08-31T21:07:52.798Z,17.30
2022-08-31T21:10:36.259Z,17.30
2022-08-31T21:13:07.699Z,17.30
2022-08-31T21:15:35.172Z,17.20
2022-08-31T21:18:02.605Z,17.20
2022-08-31T21:20:29.917Z,17.20
2022-08-31T21:22:57.342Z,17.10
2022-08-31T21:25:24.708Z,17.10
2022-08-31T21:27:53.404Z,17.00
2022-08-31T21:30:20.849Z,16.90
2022-08-31T21:32:48.485Z,16.90
2022-08-31T21:35:16.124Z,16.90
2022-08-31T21:37:43.445Z,16.80
2022-08-31T21:40:11.456Z,16.70
2022-08-31T21:42:38.994Z,16.70
2022-08-31T21:45:07.860Z,16.70
2022-08-31T21:47:35.225Z,16.50
2022-08-31T21:50:02.642Z,16.60
2022-08-31T21:52:30.179Z,16.50
2022-08-31T21:54:57.447Z,16.50
2022-08-31T21:57:26.042Z,16.50
2022-08-31T21:59:53.426Z,16.40
2022-08-31T22:02:20.683Z,16.40
2022-08-31T22:04:48.475Z,16.40
2022-08-31T22:07:15.866Z,16.40
2022-08-31T22:09:43.846Z,16.40
2022-08-31T22:12:12.779Z,16.40
2022-08-31T22:14:41.559Z,16.30
2022-08-31T22:17:09.890Z,16.30
2022-08-31T22:19:39.799Z,16.30
2022-08-31T22:22:11.903Z,16.30
2022-08-31T22:24:41.573Z,16.20
2022-08-31T22:27:11.331Z,16.20
2022-08-31T22:29:40.918Z,16.20
2022-08-31T22:32:12.336Z,16.10
2022-08-31T22:34:40.636Z,16.10
2022-08-31T22:37:09.359Z,16.10
2022-08-31T22:39:37.081Z,16.00
2022-08-31T22:42:05.317Z,16.00
2022-08-31T22:44:35.586Z,16.00
2022-08-31T22:47:04.693Z,16.00
2022-08-31T22:49:32.251Z,16.00
2022-08-31T22:51:59.585Z,15.90
2022-08-31T22:54:27.338Z,15.90
2022-08-31T22:56:55.039Z,15.90
2022-08-31T22:59:28.451Z,15.90
2022-08-31T23:02:00.669Z,15.90
2022-08-31T23:04:29.345Z,15.80
2022-08-31T23:06:57.761Z,15.80
2022-08-31T23:09:31.232Z,15.80
2022-08-31T23:12:01.212Z,15.80
2022-08-31T23:14:29.762Z,15.80
2022-08-31T23:17:00.184Z,15.80
2022-08-31T23:19:33.306Z,15.80
2022-08-31T23:22:02.293Z,15.70
2022-08-31T23:24:34.632Z,15.70
2022-08-31T23:27:39.411Z,15.70
2022-08-31T23:30:10.153Z,15.70
2022-08-31T23:32:37.367Z,15.70
2022-08-31T23:35:05.926Z,15.60
2022-08-31T23:37:33.409Z,15.60
2022-08-31T23:40:01.084Z,15.60
2022-08-31T23:42:29.112Z,15.60
2022-08-31T23:44:57.655Z,15.60
2022-08-31T23:47:29.346Z,15.60
2022-08-31T23:49:58.140Z,15.60
2022-08-31T23:52:30.231Z,15.60
2022-08-31T23:54:59.697Z,15.60
2022-08-31T23:57:32.929Z,15.60
